Time;durP1;ratioP1;P1;durP2;ratioP2;P2;SDS_P1;SDS_P2;PMS_P1;PMS_P2;Temp;Humidity;BMP_temperature;BMP_pressure;BME280_temperature;BME280_humidity;BME280_pressure;Samples;Min_cycle;Max_cycle;Signal;HPM_P1;HPM_P2
2023/01/20 00:01:18;;;;;;;7.57;4.63;;;0.70;99.90;0.30;99802.00;;;;4784075;29;88941;-69
2023/01/20 00:03:44;;;;;;;4.80;4.40;;;0.60;99.90;0.30;99812.00;;;;4785202;29;88772;-69
2023/01/20 00:06:10;;;;;;;12.17;5.27;;;0.60;99.90;0.30;99807.00;;;;4784016;29;89028;-69
2023/01/20 00:08:37;;;;;;;6.40;4.57;;;0.70;99.90;0.20;99821.00;;;;4785549;29;88056;-69
2023/01/20 00:11:10;;;;;;;5.47;4.03;;;1.00;99.90;0.20;99812.00;;;;4786433;29;88010;-69
2023/01/20 00:13:37;;;;;;;4.50;4.00;;;0.50;99.90;0.30;99827.00;;;;4781767;29;88044;-69
2023/01/20 00:16:05;;;;;;;7.53;4.77;;;0.60;99.90;0.20;99824.00;;;;4807912;29;88476;-69
2023/01/20 00:18:32;;;;;;;6.40;4.10;;;0.60;99.90;0.20;99819.00;;;;4785150;29;108187;-69
2023/01/20 00:21:06;;;;;;;10.53;6.70;;;0.60;99.90;0.20;99826.00;;;;4785544;29;88020;-69
2023/01/20 00:23:32;;;;;;;10.27;6.07;;;0.60;99.90;0.20;99830.00;;;;4778223;29;95016;-69
2023/01/20 00:25:58;;;;;;;8.13;5.57;;;0.60;99.90;0.30;99837.00;;;;4784709;29;99536;-69
2023/01/20 00:28:23;;;;;;;8.40;5.43;;;0.50;99.90;0.30;99829.00;;;;4784342;29;89677;-69
2023/01/20 00:30:49;;;;;;;6.77;4.17;;;0.60;99.90;0.20;99834.00;;;;4790776;29;88407;-69
2023/01/20 00:33:15;;;;;;;6.20;4.40;;;0.70;99.90;0.30;99839.00;;;;4794369;29;107897;-69
2023/01/20 00:35:40;;;;;;;7.53;4.87;;;0.60;99.90;0.30;99840.00;;;;4783360;29;108722;-68
2023/01/20 00:38:06;;;;;;;7.37;5.37;;;0.50;99.90;0.30;99830.00;;;;4784637;29;116743;-69
2023/01/20 00:40:32;;;;;;;5.63;4.87;;;0.70;99.90;0.30;99844.00;;;;4783559;29;97980;-69
2023/01/20 00:42:57;;;;;;;7.87;4.27;;;1.50;99.90;0.40;99853.00;;;;4786159;29;108574;-69
2023/01/20 00:45:23;;;;;;;7.37;4.33;;;0.70;99.90;0.40;99840.00;;;;4781551;29;117535;-69
2023/01/20 00:47:48;;;;;;;7.87;5.43;;;0.70;99.90;0.40;99847.00;;;;4786313;29;116826;-69
2023/01/20 00:50:14;;;;;;;11.53;6.13;;;0.70;99.90;0.40;99848.00;;;;4783643;29;110612;-69
2023/01/20 00:52:40;;;;;;;8.70;5.40;;;0.70;99.90;0.50;99851.00;;;;4795166;29;100148;-69
2023/01/20 00:55:06;;;;;;;11.17;5.80;;;0.80;99.90;0.50;99853.00;;;;4779611;29;117956;-69
2023/01/20 00:57:32;;;;;;;9.30;4.60;;;0.80;99.90;0.50;99866.00;;;;4782371;29;88980;-69
2023/01/20 00:59:57;;;;;;;5.00;3.90;;;0.80;99.90;0.50;99873.00;;;;4783123;29;110695;-69
2023/01/20 01:02:23;;;;;;;8.33;5.00;;;0.80;99.90;0.50;99873.00;;;;4785073;29;108328;-69
2023/01/20 01:04:49;;;;;;;8.43;6.50;;;1.30;99.90;0.50;99877.00;;;;4784276;29;97783;-68
2023/01/20 01:07:16;;;;;;;10.30;5.40;;;0.90;99.90;0.50;99882.00;;;;4784745;29;117825;-69
2023/01/20 01:09:42;;;;;;;7.57;4.80;;;0.80;99.90;0.60;99890.00;;;;4795369;29;87835;-69
2023/01/20 01:12:08;;;;;;;11.20;6.53;;;0.90;99.90;0.50;99882.00;;;;4796122;29;108110;-69
2023/01/20 01:14:33;;;;;;;7.40;6.10;;;0.90;99.90;0.50;99890.00;;;;4779190;29;89720;-69
2023/01/20 01:16:59;;;;;;;9.20;5.37;;;0.80;99.90;0.50;99891.00;;;;4764553;29;117515;-69
2023/01/20 01:19:25;;;;;;;9.93;5.40;;;0.90;99.90;0.50;99897.00;;;;4783162;29;88098;-69
2023/01/20 01:21:50;;;;;;;8.83;5.97;;;0.90;99.90;0.50;99895.00;;;;4784648;29;108125;-67
2023/01/20 01:24:16;;;;;;;8.70;5.30;;;0.80;99.90;0.50;99902.00;;;;4787914;29;117838;-67
2023/01/20 01:26:42;;;;;;;9.17;5.57;;;0.80;99.90;0.50;99892.00;;;;4788410;29;116872;-67
2023/01/20 01:29:07;;;;;;;7.17;5.93;;;0.80;99.90;0.50;99905.00;;;;4786421;29;111480;-68
2023/01/20 01:31:33;;;;;;;8.97;5.63;;;0.70;99.90;0.40;99895.00;;;;4772516;29;107769;-67
2023/01/20 01:33:59;;;;;;;9.00;6.73;;;0.80;99.90;0.40;99902.00;;;;4789503;29;88194;-68
2023/01/20 01:36:24;;;;;;;8.10;5.87;;;0.70;99.90;0.40;99913.00;;;;4789656;29;108499;-67
2023/01/20 01:38:50;;;;;;;8.67;5.93;;;0.80;99.90;0.50;99915.00;;;;4788335;29;88762;-67
2023/01/20 01:41:16;;;;;;;8.37;5.67;;;0.90;99.90;0.50;99915.00;;;;4785006;29;106783;-68
2023/01/20 01:44:06;;;;;;;7.53;5.93;;;0.80;99.90;0.50;99916.00;;;;4783730;29;117269;-67
2023/01/20 01:46:32;;;;;;;9.43;5.87;;;0.90;99.90;0.50;99922.00;;;;4787703;29;88221;-69
2023/01/20 01:49:03;;;;;;;9.87;6.43;;;0.80;99.90;0.50;99918.00;;;;4798791;29;88365;-67
2023/01/20 01:51:37;;;;;;;9.13;6.33;;;0.80;99.90;0.50;99927.00;;;;4786505;29;101452;-68
2023/01/20 01:54:16;;;;;;;14.23;6.20;;;0.80;99.90;0.50;99938.00;;;;4780993;29;90321;-68
2023/01/20 01:56:43;;;;;;;8.23;6.40;;;0.80;99.90;0.50;99929.00;;;;4784673;29;103566;-67
2023/01/20 01:59:11;;;;;;;7.23;5.70;;;2.10;99.90;0.50;99936.00;;;;4788531;29;87818;-68
2023/01/20 02:01:40;;;;;;;5.53;4.93;;;0.90;99.90;0.60;99946.00;;;;4788630;29;87814;-67
2023/01/20 02:04:22;;;;;;;6.57;5.20;;;0.90;99.90;0.60;99946.00;;;;4785231;29;96943;-66
2023/01/20 02:06:55;;;;;;;7.50;5.90;;;0.90;99.90;0.60;99948.00;;;;4792919;29;88805;-68
2023/01/20 02:09:22;;;;;;;10.57;5.83;;;1.00;99.90;0.70;99963.00;;;;4788846;29;87905;-67
2023/01/20 02:11:54;;;;;;;6.80;5.37;;;0.90;99.90;0.70;99964.00;;;;4798172;29;89419;-67
2023/01/20 02:14:33;;;;;;;7.60;5.93;;;0.90;99.90;0.70;99964.00;;;;4782072;29;110603;-67
2023/01/20 02:17:29;;;;;;;7.53;6.63;;;1.00;99.90;0.70;99962.00;;;;4784160;29;88479;-67
2023/01/20 02:20:42;;;;;;;9.37;5.90;;;1.00;99.90;0.70;99958.00;;;;4768174;29;88022;-67
2023/01/20 02:23:07;;;;;;;8.83;6.23;;;1.00;99.90;0.80;99970.00;;;;4786457;29;103444;-67
2023/01/20 02:26:12;;;;;;;9.57;5.37;;;1.00;99.90;0.80;99977.00;;;;4786158;29;117927;-67
2023/01/20 02:29:11;;;;;;;10.73;6.67;;;1.10;99.90;0.80;99987.00;;;;4791738;29;111658;-67
2023/01/20 02:32:32;;;;;;;8.93;6.17;;;1.10;99.90;0.80;99979.00;;;;4781836;29;104794;-67
2023/01/20 02:35:09;;;;;;;10.90;6.00;;;1.20;99.90;0.80;99967.00;;;;4777564;29;88088;-67
2023/01/20 02:37:50;;;;;;;11.20;5.97;;;1.20;99.90;0.90;99983.00;;;;4784929;29;87995;-67
2023/01/20 02:40:31;;;;;;;6.40;5.07;;;1.20;99.90;0.90;99978.00;;;;4782957;29;109582;-67
2023/01/20 02:43:27;;;;;;;8.00;5.10;;;1.30;99.90;0.90;99977.00;;;;4795067;29;88144;-67
2023/01/20 02:46:14;;;;;;;7.73;5.43;;;1.30;99.90;0.90;99978.00;;;;4786464;29;88678;-67
2023/01/20 02:48:54;;;;;;;6.27;5.50;;;1.20;99.90;0.90;99984.00;;;;4776720;29;105799;-66
2023/01/20 02:51:27;;;;;;;11.63;7.57;;;1.30;99.90;0.90;99979.00;;;;4780579;29;95584;-66
2023/01/20 02:54:01;;;;;;;6.00;4.93;;;1.30;99.90;1.00;99984.00;;;;4782220;29;88015;-67
2023/01/20 02:56:29;;;;;;;8.20;5.53;;;1.30;99.90;1.00;99985.00;;;;4798479;29;103029;-66
2023/01/20 02:59:13;;;;;;;8.53;5.73;;;1.30;99.90;1.00;99980.00;;;;4769842;29;89066;-67
2023/01/20 03:01:57;;;;;;;7.30;5.37;;;1.30;99.90;1.00;99981.00;;;;4781928;29;88774;-67
2023/01/20 03:04:28;;;;;;;11.67;6.67;;;1.30;99.90;1.00;99989.00;;;;4794408;29;103524;-67
2023/01/20 03:06:56;;;;;;;7.77;6.03;;;1.30;99.90;1.00;99982.00;;;;4789780;29;103789;-67
2023/01/20 03:09:33;;;;;;;9.10;6.43;;;1.30;99.90;1.00;99992.00;;;;4789698;29;119060;-67
2023/01/20 03:12:21;;;;;;;8.73;5.17;;;1.30;99.90;1.00;100003.00;;;;4781233;29;108125;-68
2023/01/20 03:14:48;;;;;;;8.40;5.87;;;1.40;99.90;1.00;99994.00;;;;4794505;29;87898;-66
2023/01/20 03:17:14;;;;;;;6.50;5.60;;;1.30;99.90;1.00;100001.00;;;;4786116;29;87344;-67
2023/01/20 03:19:40;;;;;;;9.83;5.67;;;1.30;99.90;1.00;100004.00;;;;4781259;29;116000;-67
2023/01/20 03:22:06;;;;;;;9.63;6.47;;;1.30;99.90;1.00;99999.00;;;;4784474;29;89021;-67
2023/01/20 03:24:34;;;;;;;7.63;4.90;;;1.40;99.90;1.00;100004.00;;;;4782774;29;88488;-66
2023/01/20 03:26:59;;;;;;;8.93;6.47;;;1.30;99.90;1.10;100011.00;;;;4783705;29;88291;-66
2023/01/20 03:29:25;;;;;;;10.20;6.87;;;1.40;99.90;1.10;100009.00;;;;4783124;29;89132;-68
2023/01/20 03:31:58;;;;;;;12.53;6.80;;;1.30;99.90;1.10;100015.00;;;;4782346;29;87973;-66
2023/01/20 03:34:27;;;;;;;13.63;7.23;;;1.40;99.90;1.10;100015.00;;;;4780653;29;88051;-66
2023/01/20 03:36:54;;;;;;;11.27;7.20;;;1.40;99.90;1.10;100018.00;;;;4780739;29;102000;-66
2023/01/20 03:39:22;;;;;;;14.37;7.23;;;1.40;99.90;1.10;100019.00;;;;4781405;29;88349;-67
2023/01/20 03:42:30;;;;;;;8.20;5.73;;;1.40;99.90;1.10;100020.00;;;;4782984;29;87787;-68
2023/01/20 03:45:22;;;;;;;10.27;6.10;;;1.40;99.90;1.10;100025.00;;;;4794577;29;88055;-67
2023/01/20 03:48:39;;;;;;;12.37;5.83;;;1.40;99.90;1.10;100030.00;;;;4793939;29;87722;-67
2023/01/20 03:51:34;;;;;;;9.50;6.90;;;1.40;99.90;1.10;100037.00;;;;4780374;29;110477;-67
2023/01/20 03:54:07;;;;;;;10.03;7.17;;;1.40;99.90;1.10;100031.00;;;;4777920;29;95007;-66
2023/01/20 03:57:03;;;;;;;10.13;5.80;;;2.70;99.90;1.10;100042.00;;;;4793737;29;91939;-67
2023/01/20 03:59:33;;;;;;;9.57;6.37;;;1.50;99.90;1.10;100046.00;;;;4780934;29;88338;-67
2023/01/20 04:02:04;;;;;;;15.10;8.50;;;1.40;99.90;1.10;100038.00;;;;4791851;29;109136;-67
2023/01/20 04:04:34;;;;;;;9.47;6.67;;;1.40;99.90;1.10;100047.00;;;;4795110;29;88606;-67
2023/01/20 04:07:02;;;;;;;12.23;7.47;;;1.50;99.90;1.10;100063.00;;;;4785031;29;87853;-67
2023/01/20 04:09:34;;;;;;;14.57;8.33;;;1.40;99.90;1.10;100056.00;;;;4785364;29;90764;-67
2023/01/20 04:12:00;;;;;;;10.13;6.57;;;1.50;99.90;1.10;100053.00;;;;4793795;29;89054;-66
2023/01/20 04:14:25;;;;;;;7.67;6.83;;;1.50;99.90;1.10;100055.00;;;;4780799;29;102365;-67
2023/01/20 04:16:55;;;;;;;9.83;6.70;;;1.50;99.90;1.10;100060.00;;;;4780134;29;109438;-67
2023/01/20 04:19:21;;;;;;;9.57;5.90;;;1.50;99.90;1.10;100062.00;;;;4781801;29;89552;-67
2023/01/20 04:21:59;;;;;;;10.13;7.53;;;1.50;99.90;1.10;100070.00;;;;4783610;29;104594;-67
2023/01/20 04:25:03;;;;;;;9.10;7.50;;;1.50;99.90;1.10;100070.00;;;;4780960;29;106747;-67
2023/01/20 04:27:28;;;;;;;13.17;7.17;;;1.50;99.90;1.10;100066.00;;;;4776645;29;94193;-67
2023/01/20 04:29:54;;;;;;;11.80;7.00;;;1.50;99.90;1.10;100067.00;;;;4778987;29;87696;-67
2023/01/20 04:32:20;;;;;;;9.70;7.33;;;1.50;99.90;1.20;100074.00;;;;4780510;29;117566;-67
2023/01/20 04:34:45;;;;;;;15.17;7.67;;;1.60;99.90;1.10;100079.00;;;;4778587;29;116421;-68
2023/01/20 04:37:11;;;;;;;9.80;6.83;;;1.50;99.90;1.20;100085.00;;;;4782536;29;109570;-67
2023/01/20 04:39:36;;;;;;;12.77;7.57;;;2.50;99.90;1.20;100082.00;;;;4782283;29;107985;-67
2023/01/20 04:42:02;;;;;;;10.20;7.00;;;1.50;99.90;1.10;100078.00;;;;4780920;29;106750;-67
2023/01/20 04:44:28;;;;;;;9.30;8.07;;;1.40;99.90;1.10;100087.00;;;;4781665;29;108968;-67
2023/01/20 04:46:58;;;;;;;12.73;6.87;;;1.50;99.90;1.10;100085.00;;;;4792862;29;109285;-66
2023/01/20 04:49:23;;;;;;;10.17;7.23;;;1.50;99.90;1.10;100096.00;;;;4780579;29;87983;-66
2023/01/20 04:51:49;;;;;;;8.37;6.47;;;1.50;99.90;1.10;100095.00;;;;4783278;29;105790;-68
2023/01/20 04:54:15;;;;;;;11.27;6.87;;;1.50;99.90;1.20;100092.00;;;;4793022;29;117155;-66
2023/01/20 04:56:40;;;;;;;14.73;7.23;;;1.50;99.90;1.10;100100.00;;;;4784064;29;110549;-66
2023/01/20 04:59:06;;;;;;;9.43;7.20;;;1.50;99.90;1.10;100101.00;;;;4782742;29;87077;-66
2023/01/20 05:01:32;;;;;;;12.70;7.97;;;1.50;99.90;1.20;100104.00;;;;4786639;29;117619;-67
2023/01/20 05:03:57;;;;;;;11.73;7.30;;;1.50;99.90;1.20;100093.00;;;;4783760;29;117655;-66
2023/01/20 05:06:23;;;;;;;8.07;6.40;;;2.20;99.90;1.20;100108.00;;;;4786923;29;109913;-67
2023/01/20 05:08:49;;;;;;;9.43;6.30;;;1.50;99.90;1.20;100106.00;;;;4786759;29;88263;-66
2023/01/20 05:11:14;;;;;;;11.30;7.17;;;2.20;99.90;1.20;100108.00;;;;4783200;29;88778;-67
2023/01/20 05:13:40;;;;;;;12.33;8.13;;;1.50;99.90;1.20;100106.00;;;;4782910;29;94366;-66
2023/01/20 05:16:07;;;;;;;7.63;6.90;;;1.60;99.90;1.20;100105.00;;;;4786470;29;110078;-67
2023/01/20 05:18:33;;;;;;;7.03;6.33;;;1.60;99.90;1.20;100113.00;;;;4783771;29;89129;-67
2023/01/20 05:20:59;;;;;;;10.07;6.50;;;1.50;99.90;1.20;100122.00;;;;4783810;29;88036;-67
2023/01/20 05:23:25;;;;;;;9.90;7.27;;;0.80;99.90;1.20;100119.00;;;;4783367;29;87971;-67
2023/01/20 05:25:52;;;;;;;10.63;7.40;;;1.50;99.90;1.20;100132.00;;;;4784432;29;110483;-67
2023/01/20 05:28:18;;;;;;;11.03;6.70;;;1.50;99.90;1.20;100132.00;;;;4784934;29;87904;-67
2023/01/20 05:30:45;;;;;;;14.17;7.80;;;1.60;99.90;1.20;100133.00;;;;4785782;29;111640;-67
2023/01/20 05:33:11;;;;;;;8.97;6.90;;;1.50;99.90;1.20;100133.00;;;;4784674;29;89038;-67
2023/01/20 05:35:37;;;;;;;13.60;7.13;;;1.60;99.90;1.20;100137.00;;;;4786367;29;91892;-67
2023/01/20 05:38:03;;;;;;;9.97;7.23;;;1.60;99.90;1.20;100147.00;;;;4785638;29;101825;-67
2023/01/20 05:40:29;;;;;;;10.67;7.17;;;1.90;99.90;1.20;100147.00;;;;4781019;29;117728;-67
2023/01/20 05:43:01;;;;;;;12.07;7.40;;;1.50;99.90;1.20;100162.00;;;;4780509;29;116984;-67
2023/01/20 05:45:28;;;;;;;10.90;7.37;;;1.60;99.90;1.20;100153.00;;;;4782535;29;109805;-67
2023/01/20 05:47:55;;;;;;;11.17;7.50;;;1.60;99.90;1.20;100157.00;;;;4785376;29;87064;-67
2023/01/20 05:50:21;;;;;;;12.77;6.97;;;1.60;99.90;1.30;100157.00;;;;4784005;29;88974;-67
2023/01/20 05:52:46;;;;;;;12.33;7.53;;;1.50;99.90;1.20;100154.00;;;;4783746;29;116478;-67
2023/01/20 05:55:12;;;;;;;11.93;6.63;;;1.60;99.90;1.30;100155.00;;;;4783712;29;110154;-67
2023/01/20 05:57:38;;;;;;;11.73;6.97;;;1.60;99.90;1.30;100169.00;;;;4783363;29;108555;-67
2023/01/20 06:00:05;;;;;;;7.80;6.97;;;1.60;99.90;1.30;100175.00;;;;4780169;29;117127;-67
2023/01/20 06:02:31;;;;;;;9.00;7.20;;;1.60;99.90;1.30;100172.00;;;;4781712;29;105825;-67
2023/01/20 06:05:00;;;;;;;13.57;8.83;;;1.70;99.90;1.30;100170.00;;;;4781103;29;109245;-67
2023/01/20 06:07:29;;;;;;;11.83;7.07;;;1.60;99.90;1.30;100175.00;;;;4785149;29;87666;-66
2023/01/20 06:09:56;;;;;;;12.47;7.67;;;1.70;99.90;1.30;100187.00;;;;4783698;29;104571;-66
2023/01/20 06:12:22;;;;;;;8.03;6.30;;;1.70;99.90;1.30;100178.00;;;;4783272;29;88488;-66
2023/01/20 06:14:48;;;;;;;9.70;6.30;;;1.50;99.90;1.30;100189.00;;;;4782625;29;87969;-66
2023/01/20 06:17:13;;;;;;;9.77;6.67;;;1.60;99.90;1.30;100193.00;;;;4783427;29;103680;-66
2023/01/20 06:19:39;;;;;;;10.10;4.63;;;1.60;99.90;1.30;100196.00;;;;4781507;29;117756;-66
2023/01/20 06:22:07;;;;;;;8.63;6.20;;;1.50;99.90;1.30;100203.00;;;;4781653;29;118120;-66
2023/01/20 06:24:32;;;;;;;10.60;6.33;;;1.60;99.90;1.30;100203.00;;;;4781334;29;101394;-66
2023/01/20 06:26:58;;;;;;;7.27;5.33;;;1.70;99.90;1.30;100201.00;;;;4782965;29;108873;-66
2023/01/20 06:29:24;;;;;;;8.40;6.83;;;1.70;99.90;1.30;100199.00;;;;4783065;29;118906;-66
2023/01/20 06:31:49;;;;;;;11.57;6.47;;;1.50;99.90;1.30;100197.00;;;;4782550;29;116005;-67
2023/01/20 06:34:15;;;;;;;9.20;7.60;;;1.60;99.90;1.30;100207.00;;;;4783594;29;108976;-67
2023/01/20 06:36:41;;;;;;;12.07;7.63;;;1.60;99.90;1.30;100211.00;;;;4783570;29;87227;-66
2023/01/20 06:39:07;;;;;;;9.83;6.77;;;1.60;99.90;1.40;100215.00;;;;4780374;29;117005;-66
2023/01/20 06:41:32;;;;;;;11.47;6.53;;;1.60;99.90;1.30;100216.00;;;;4781616;29;117219;-66
2023/01/20 06:43:58;;;;;;;10.50;7.37;;;1.70;99.90;1.30;100221.00;;;;4783611;29;108062;-67
2023/01/20 06:46:24;;;;;;;10.13;7.73;;;1.70;99.90;1.30;100229.00;;;;4785925;29;107392;-66
2023/01/20 06:48:49;;;;;;;14.53;7.67;;;1.70;99.90;1.30;100234.00;;;;4781525;29;98573;-66
2023/01/20 06:51:18;;;;;;;12.93;6.03;;;1.70;99.90;1.30;100220.00;;;;4781649;29;90064;-66
2023/01/20 06:53:45;;;;;;;10.67;7.10;;;1.60;99.90;1.30;100233.00;;;;4783564;29;87959;-67
2023/01/20 06:56:12;;;;;;;10.20;7.83;;;1.60;99.90;1.30;100238.00;;;;4784674;29;87930;-67
2023/01/20 06:58:39;;;;;;;9.60;6.80;;;1.70;99.90;1.30;100248.00;;;;4782344;29;88074;-66
2023/01/20 07:01:09;;;;;;;14.03;7.67;;;1.80;99.90;1.30;100248.00;;;;4782281;29;116574;-66
2023/01/20 07:03:35;;;;;;;11.50;6.23;;;1.60;99.90;1.30;100243.00;;;;4778815;29;92671;-68
2023/01/20 07:06:17;;;;;;;8.90;6.63;;;1.70;99.90;1.30;100245.00;;;;4785696;29;87812;-68
2023/01/20 07:08:44;;;;;;;14.20;8.33;;;2.70;99.90;1.40;100252.00;;;;4792657;29;89674;-67
2023/01/20 07:11:10;;;;;;;9.93;5.20;;;1.80;99.90;1.40;100247.00;;;;4779086;29;88997;-67
2023/01/20 07:13:35;;;;;;;12.03;6.97;;;1.70;99.90;1.40;100257.00;;;;4780557;29;107680;-66
2023/01/20 07:16:01;;;;;;;6.73;6.07;;;1.70;99.90;1.40;100269.00;;;;4783422;29;109143;-67
2023/01/20 07:18:27;;;;;;;6.97;6.00;;;1.80;99.90;1.40;100267.00;;;;4779984;29;116940;-67
2023/01/20 07:20:56;;;;;;;8.80;5.63;;;1.70;99.90;1.40;100274.00;;;;4781708;29;119276;-67
2023/01/20 07:23:22;;;;;;;20.17;9.10;;;1.80;99.90;1.40;100277.00;;;;4784083;29;87946;-67
2023/01/20 07:25:57;;;;;;;13.57;7.37;;;1.70;99.90;1.40;100276.00;;;;4783831;29;95169;-67
2023/01/20 07:28:23;;;;;;;10.73;6.77;;;1.80;99.90;1.40;100275.00;;;;4783084;29;88117;-68
2023/01/20 07:30:48;;;;;;;9.50;5.70;;;1.80;99.90;1.40;100289.00;;;;4786316;29;115770;-67
2023/01/20 07:33:14;;;;;;;10.00;6.17;;;1.80;99.90;1.40;100288.00;;;;4782831;29;110514;-69
2023/01/20 07:35:39;;;;;;;16.40;7.17;;;1.70;99.90;1.40;100288.00;;;;4783719;29;108844;-68
2023/01/20 07:38:05;;;;;;;8.97;6.13;;;1.80;99.90;1.40;100294.00;;;;4783021;29;117628;-68
2023/01/20 07:40:31;;;;;;;7.50;5.40;;;1.80;99.90;1.40;100298.00;;;;4781866;29;88920;-69
2023/01/20 07:42:56;;;;;;;8.17;5.67;;;1.70;99.90;1.40;100302.00;;;;4780332;29;109343;-68
2023/01/20 07:45:22;;;;;;;10.07;6.90;;;2.40;99.90;1.40;100296.00;;;;4784169;29;107889;-68
2023/01/20 07:47:48;;;;;;;9.90;6.47;;;1.70;99.90;1.40;100305.00;;;;4781243;29;112328;-68
2023/01/20 07:50:14;;;;;;;12.90;7.70;;;1.80;99.90;1.40;100311.00;;;;4782375;29;117450;-67
2023/01/20 07:52:40;;;;;;;7.43;6.33;;;1.80;99.90;1.40;100312.00;;;;4781206;29;103177;-68
2023/01/20 07:55:06;;;;;;;9.27;6.37;;;1.80;99.90;1.50;100330.00;;;;4782794;29;87775;-67
2023/01/20 07:57:32;;;;;;;10.93;6.27;;;1.80;99.90;1.50;100315.00;;;;4781126;29;110337;-68
2023/01/20 07:59:58;;;;;;;7.10;6.20;;;1.70;99.90;1.50;100335.00;;;;4782478;29;89112;-68
2023/01/20 08:02:23;;;;;;;10.73;7.23;;;1.80;99.90;1.50;100335.00;;;;4782704;29;87668;-69
2023/01/20 08:04:49;;;;;;;8.97;7.00;;;1.80;99.90;1.50;100326.00;;;;4782862;29;97776;-68
2023/01/20 08:07:15;;;;;;;12.53;6.93;;;1.80;99.90;1.50;100336.00;;;;4779496;29;118453;-69
2023/01/20 08:09:42;;;;;;;12.80;7.07;;;1.80;99.90;1.50;100337.00;;;;4778217;29;116291;-68
2023/01/20 08:12:08;;;;;;;10.23;7.10;;;1.80;99.90;1.60;100338.00;;;;4783580;29;88169;-68
2023/01/20 08:14:34;;;;;;;12.40;7.90;;;1.90;99.90;1.60;100338.00;;;;4783322;29;108969;-69
2023/01/20 08:16:59;;;;;;;8.77;7.30;;;1.90;99.90;1.60;100344.00;;;;4784886;29;88358;-69
2023/01/20 08:19:28;;;;;;;8.23;7.23;;;2.00;99.90;1.60;100353.00;;;;4783103;29;89100;-69
2023/01/20 08:21:54;;;;;;;11.23;6.23;;;2.00;99.90;1.60;100353.00;;;;4783660;29;88988;-69
2023/01/20 08:24:20;;;;;;;12.63;7.17;;;1.90;99.90;1.70;100371.00;;;;4779276;29;109770;-68
2023/01/20 08:26:45;;;;;;;9.60;6.30;;;1.90;99.90;1.70;100365.00;;;;4782819;29;117805;-68
2023/01/20 08:29:11;;;;;;;9.60;7.20;;;1.90;99.90;1.70;100363.00;;;;4781822;29;117468;-70
2023/01/20 08:31:37;;;;;;;11.30;6.30;;;1.90;99.90;1.70;100371.00;;;;4780361;29;109411;-68
2023/01/20 08:34:04;;;;;;;8.53;5.97;;;2.00;99.90;1.70;100372.00;;;;4783929;29;88062;-69
2023/01/20 08:36:34;;;;;;;13.80;8.00;;;2.10;99.90;1.80;100369.00;;;;4782447;29;88598;-69
2023/01/20 08:39:03;;;;;;;12.73;7.40;;;2.00;99.90;1.80;100383.00;;;;4779581;29;110636;-69
2023/01/20 08:41:33;;;;;;;9.93;6.57;;;2.20;99.90;1.80;100378.00;;;;4783100;29;87868;-70
2023/01/20 08:44:03;;;;;;;11.77;7.87;;;2.10;99.90;1.80;100377.00;;;;4781668;29;87892;-69
2023/01/20 08:46:29;;;;;;;11.83;6.40;;;2.10;99.90;1.80;100384.00;;;;4780159;29;91724;-70
2023/01/20 08:48:55;;;;;;;8.03;6.60;;;2.00;99.90;1.80;100386.00;;;;4780233;29;109810;-70
2023/01/20 08:51:25;;;;;;;9.80;5.87;;;2.10;99.90;1.90;100391.00;;;;4778513;29;87785;-69
2023/01/20 08:53:51;;;;;;;9.50;5.90;;;2.10;99.90;1.90;100392.00;;;;4786340;29;88584;-69
2023/01/20 08:56:18;;;;;;;9.23;7.47;;;2.20;99.90;1.90;100395.00;;;;4782040;29;117815;-71
2023/01/20 08:58:44;;;;;;;14.03;8.93;;;2.40;99.90;1.90;100394.00;;;;4782173;29;88007;-70
2023/01/20 09:01:13;;;;;;;11.87;8.00;;;2.20;99.90;2.00;100399.00;;;;4783262;29;87539;-69
2023/01/20 09:03:39;;;;;;;11.83;8.83;;;2.20;99.90;2.00;100402.00;;;;4783318;29;87251;-70
2023/01/20 09:06:07;;;;;;;16.20;8.17;;;2.20;99.90;2.00;100406.00;;;;4780847;29;88199;-69
2023/01/20 09:08:32;;;;;;;10.70;7.40;;;2.40;99.90;2.00;100415.00;;;;4780745;29;111020;-68
2023/01/20 09:11:09;;;;;;;10.30;7.17;;;2.30;99.90;2.00;100417.00;;;;4781459;29;89920;-69
2023/01/20 09:13:36;;;;;;;15.07;8.07;;;2.30;99.90;2.10;100422.00;;;;4780525;29;94387;-69
2023/01/20 09:16:03;;;;;;;13.23;8.17;;;2.40;99.90;2.10;100431.00;;;;4781180;29;88079;-69
2023/01/20 09:18:30;;;;;;;9.60;6.87;;;2.50;99.90;2.10;100433.00;;;;4779365;29;88705;-69
2023/01/20 09:20:58;;;;;;;13.07;8.63;;;3.30;99.90;2.10;100432.00;;;;4780281;29;88115;-69
2023/01/20 09:23:25;;;;;;;11.27;7.80;;;2.40;99.90;2.20;100429.00;;;;4781187;29;87957;-69
2023/01/20 09:25:50;;;;;;;8.97;6.63;;;2.50;99.90;2.10;100429.00;;;;4781553;29;90332;-70
2023/01/20 09:28:16;;;;;;;12.30;8.73;;;2.40;99.90;2.20;100427.00;;;;4793376;29;112190;-70
2023/01/20 09:30:42;;;;;;;9.70;7.23;;;2.30;99.90;2.20;100443.00;;;;4781031;29;89230;-70
2023/01/20 09:33:12;;;;;;;16.80;9.80;;;2.50;99.90;2.20;100440.00;;;;4779749;29;87825;-70
2023/01/20 09:35:38;;;;;;;11.13;6.57;;;2.50;99.90;2.20;100435.00;;;;4780970;29;88716;-70
2023/01/20 09:44:43;;;;;;;9.90;6.93;;;2.60;99.90;2.30;100441.00;;;;4783997;29;87852;-69
2023/01/20 09:47:28;;;;;;;12.73;7.87;;;3.10;99.90;2.30;100446.00;;;;4784681;29;87836;-70
2023/01/20 09:53:47;;;;;;;9.40;5.33;;;2.70;99.90;2.40;100448.00;;;;4785215;29;87816;-71
2023/01/20 09:56:18;;;;;;;14.73;7.53;;;2.70;99.90;2.50;100445.00;;;;4797722;29;87048;-72
2023/01/20 09:58:59;;;;;;;10.83;7.60;;;3.20;99.90;2.50;100437.00;;;;4782049;29;88786;-72
2023/01/20 10:01:38;;;;;;;12.57;7.50;;;2.80;99.90;2.50;100437.00;;;;4783180;29;89681;-72
2023/01/20 10:04:37;;;;;;;11.73;6.63;;;2.70;99.90;2.50;100443.00;;;;4782078;29;104989;-71
2023/01/20 10:07:20;;;;;;;9.43;6.33;;;2.80;99.90;2.50;100444.00;;;;4785907;29;87841;-72
2023/01/20 10:10:13;;;;;;;8.97;6.83;;;2.80;99.90;2.50;100441.00;;;;4781678;29;88159;-71
2023/01/20 10:13:25;;;;;;;12.53;7.57;;;2.80;99.90;2.50;100440.00;;;;4785350;29;88121;-70
2023/01/20 10:15:54;;;;;;;11.80;7.60;;;2.80;99.90;2.50;100443.00;;;;4784754;29;102487;-69
2023/01/20 10:18:46;;;;;;;12.03;7.23;;;2.80;99.90;2.60;100442.00;;;;4784760;29;88253;-69
2023/01/20 10:21:19;;;;;;;11.53;8.63;;;2.90;99.90;2.60;100448.00;;;;4783711;29;89025;-69
2023/01/20 10:23:57;;;;;;;11.43;7.77;;;2.80;99.90;2.60;100441.00;;;;4783920;29;95841;-69
2023/01/20 10:26:39;;;;;;;13.37;6.63;;;2.90;99.90;2.70;100440.00;;;;4785197;29;87853;-70
2023/01/20 10:29:15;;;;;;;10.17;7.63;;;3.00;99.90;2.70;100444.00;;;;4795725;29;87881;-69
2023/01/20 10:31:48;;;;;;;18.23;8.90;;;3.00;99.90;2.80;100451.00;;;;4796361;29;88526;-70
2023/01/20 10:34:19;;;;;;;10.47;6.73;;;3.10;99.90;2.80;100444.00;;;;4794576;29;88302;-69
2023/01/20 10:36:55;;;;;;;14.83;7.80;;;3.00;99.90;2.80;100446.00;;;;4784118;29;87765;-69
2023/01/20 10:39:53;;;;;;;12.33;6.73;;;3.10;99.90;2.80;100449.00;;;;4782297;29;87710;-69
2023/01/20 10:42:19;;;;;;;12.93;6.60;;;3.10;99.90;2.90;100461.00;;;;4794974;29;88175;-68
2023/01/20 10:44:48;;;;;;;11.73;8.30;;;3.10;99.90;2.90;100450.00;;;;4779715;29;88039;-69
2023/01/20 10:47:49;;;;;;;15.70;7.27;;;3.20;99.90;2.90;100450.00;;;;4780331;29;93278;-70
2023/01/20 10:50:52;;;;;;;12.03;8.77;;;3.10;99.90;3.00;100446.00;;;;4781422;29;100852;-69
2023/01/20 10:53:50;;;;;;;13.30;8.07;;;3.20;99.90;3.00;100452.00;;;;4781309;29;111565;-69
2023/01/20 10:56:35;;;;;;;10.93;7.37;;;3.20;99.90;3.00;100455.00;;;;4787011;29;87778;-70
2023/01/20 10:59:16;;;;;;;9.70;7.60;;;3.30;99.90;3.00;100463.00;;;;4778840;29;88737;-70
2023/01/20 11:01:46;;;;;;;11.93;7.50;;;3.30;99.90;3.00;100469.00;;;;4783890;29;100778;-69
2023/01/20 11:04:20;;;;;;;9.20;6.57;;;3.30;99.90;3.10;100476.00;;;;4784592;29;109689;-70
2023/01/20 11:06:57;;;;;;;11.13;7.37;;;3.40;99.90;3.00;100464.00;;;;4782389;29;96788;-70
2023/01/20 11:09:35;;;;;;;10.73;7.40;;;3.30;99.90;3.10;100463.00;;;;4783550;29;88956;-71
2023/01/20 11:12:08;;;;;;;14.33;8.17;;;3.00;99.90;3.10;100472.00;;;;4781969;29;87991;-70
2023/01/20 11:14:34;;;;;;;10.10;7.20;;;3.30;99.90;3.10;100478.00;;;;4784184;29;108775;-71
2023/01/20 11:17:05;;;;;;;10.87;7.97;;;3.30;99.90;3.10;100479.00;;;;4780158;29;87130;-71
2023/01/20 11:19:56;;;;;;;9.03;6.47;;;3.30;99.90;3.00;100485.00;;;;4796650;29;87863;-71
2023/01/20 11:22:32;;;;;;;13.00;7.33;;;3.40;99.90;3.10;100496.00;;;;4792231;29;87903;-72
2023/01/20 11:24:59;;;;;;;13.30;7.13;;;3.20;99.90;3.00;100492.00;;;;4793330;29;88912;-72